Wetterdaten: aktuell Sonntag, 10.05.2026 18:32
Datum Zeit Temperatur Luftfeuchte Luftdruck Regen Wind Richtung Richtung Sonnenschein Helligkeit Taupunkt Windchill
10.05.2026 18:32 13,7 °C 80 % 1005,5 hPa 8,6 l/m² 8,3 km/h (2 Bft) W-SW±22.5° 245 ° 0 min 5,37 klux 10,3 °C 12,6 °C
10.05.2026 17:34 17,4 °C 74 % 1004,4 hPa 4,7 l/m² 28,0 km/h (4 Bft) S±45° 170 ° 0 min 1,70 klux 12,7 °C 11,4 °C
10.05.2026 16:37 20,8 °C 56 % 1003,4 hPa 0,0 l/m² 0,4 km/h (0 Bft) O 85 ° 0 min 25,8 klux 11,7 °C 20,8 °C
10.05.2026 15:40 21,4 °C 54 % 1003,3 hPa 0,0 l/m² 4,5 km/h (1 Bft) N-NO 30 ° 0 min 29,6 klux 11,7 °C 21,4 °C
10.05.2026 14:44 22,0 °C 53 % 1004,2 hPa 0,0 l/m² 0,9 km/h (0 Bft) SO 140 ° 7 min 61,1 klux 12,0 °C 22,0 °C
10.05.2026 13:46 22,1 °C 54 % 1004,2 hPa 0,0 l/m² 6,1 km/h (2 Bft) NO±22.5° 45 ° 18 min 61,7 klux 12,3 °C 22,1 °C
10.05.2026 12:49 21,4 °C 55 % 1005,4 hPa 0,0 l/m² 13,0 km/h (3 Bft) O-NO±22.5° 75 ° 51 min 106 klux 12,0 °C 19,4 °C
10.05.2026 11:52 20,1 °C 62 % 1005,8 hPa 0,0 l/m² 11,6 km/h (2 Bft) O-NO±22.5° 65 ° 29 min 94,4 klux 12,6 °C 18,3 °C
10.05.2026 10:55 20,0 °C 62 % 1005,8 hPa 0,0 l/m² 10,0 km/h (2 Bft) NO±45° 45 ° 60 min 63,8 klux 12,5 °C 18,6 °C
10.05.2026 09:58 17,8 °C 69 % 1006,5 hPa 0,0 l/m² 6,8 km/h (2 Bft) NO±45° 35 ° 60 min 62,4 klux 12,0 °C 17,6 °C
10.05.2026 09:01 14,7 °C 80 % 1008,4 hPa 0,0 l/m² 0,6 km/h (0 Bft) N 355 ° 60 min 59,4 klux 11,3 °C 14,7 °C
10.05.2026 08:04 11,6 °C 89 % 1009,4 hPa 0,0 l/m² 5,4 km/h (1 Bft) W 260 ° 60 min 40,5 klux 9,8 °C 11,6 °C
10.05.2026 07:07 8,6 °C 91 % 1010,3 hPa 0,0 l/m² 9,4 km/h (2 Bft) W-SW±22.5° 250 ° 35 min 24,1 klux 7,2 °C 6,4 °C
10.05.2026 06:07 8,3 °C 90 % 1010,4 hPa 0,0 l/m² 13,0 km/h (3 Bft) W-SW±22.5° 250 ° 0 min 1,45 klux 6,8 °C 4,0 °C
10.05.2026 05:10 8,6 °C 88 % 1011,4 hPa 0,0 l/m² 10,7 km/h (2 Bft) W-SW±22.5° 250 ° 0 min 0 lux 6,7 °C 5,6 °C
10.05.2026 04:13 9,1 °C 87 % 1011,2 hPa 0,0 l/m² 8,8 km/h (2 Bft) W-SW 250 ° 0 min 0 lux 7,1 °C 7,4 °C
10.05.2026 03:16 9,7 °C 85 % 1011,0 hPa 0,0 l/m² 7,0 km/h (2 Bft) W-SW±22.5° 255 ° 0 min 0 lux 7,3 °C 9,3 °C
10.05.2026 02:19 10,3 °C 84 % 1011,9 hPa 0,0 l/m² 5,5 km/h (1 Bft) W-SW 255 ° 0 min 0 lux 7,7 °C 10,3 °C
10.05.2026 01:22 10,9 °C 81 % 1012,8 hPa 0,0 l/m² 5,2 km/h (1 Bft) W±22.5° 260 ° 0 min 0 lux 7,8 °C 10,9 °C
10.05.2026 00:25 11,5 °C 78 % 1012,7 hPa 0,0 l/m² 0,8 km/h (0 Bft) W-SW 245 ° 0 min 0 lux 7,8 °C 11,5 °C
09.05.2026 23:28 12,2 °C 75 % 1012,5 hPa 0,0 l/m² 4,0 km/h (1 Bft) NW 320 ° 0 min 0 lux 7,9 °C 12,2 °C
09.05.2026 22:31 13,0 °C 71 % 1012,2 hPa 0,0 l/m² 0,0 km/h (0 Bft) N 360 ° 0 min 0 lux 7,9 °C 13,0 °C
09.05.2026 21:34 14,4 °C 68 % 1011,8 hPa 0,0 l/m² 0,0 km/h (0 Bft) N 360 ° 0 min 4 lux 8,6 °C 14,4 °C
09.05.2026 20:37 16,5 °C 64 % 1011,2 hPa 0,0 l/m² 0,0 km/h (0 Bft) N 360 ° 18 min 1,42 klux 9,7 °C 16,5 °C
09.05.2026 19:40 18,3 °C 62 % 1010,7 hPa 0,0 l/m² 0,0 km/h (0 Bft) NO 35 ° 6 min 17,2 klux 10,9 °C 18,3 °C
09.05.2026 19:02 19,4 °C 59 % 1010,4 hPa 0,0 l/m² 0,5 km/h (0 Bft) N 10 ° 0 min 11,1 klux 11,2 °C 19,4 °C
_ Min-Zeit 06:29 14:38 16:52 - 19:32 - - - - 06:29 06:41
Minimum _ 8,1 °C 51 % 1002,4 hPa - 0,0 km/h (0 Bft) - - - - 6,4 °C 3,6 °C
_ Max-Zeit 14:01 07:01 01:40 17:37 17:16 - - 06:58 12:52 12:04 13:46
Maximum _ 22,2 °C 91 % 1012,9 hPa 2,2 l/m² 35,2 km/h
SW (5 Bft)
- - 5 min 110 klux 12,8 °C 22,1 °C
Durchschnitt _ 15,4 °C 71 % 1008,9 hPa #13,3 l/m² 5,9 km/h (2 Bft) W-SW - #6:00 h 22,7 klux 9,8 °C 14,6 °C